createdAt,value
2018-08-17T00:01:14.400Z,3.17
2018-08-17T00:03:43.841Z,3.53
2018-08-17T00:06:12.999Z,3.73
2018-08-17T00:08:42.196Z,4.10
2018-08-17T00:11:11.818Z,3.70
2018-08-17T00:13:40.992Z,3.80
2018-08-17T00:16:10.704Z,3.80
2018-08-17T00:18:40.008Z,3.87
2018-08-17T00:21:10.061Z,3.97
2018-08-17T00:23:39.125Z,3.70
2018-08-17T00:26:10.993Z,3.73
2018-08-17T00:28:40.038Z,4.07
2018-08-17T00:31:33.991Z,3.43
2018-08-17T00:34:03.150Z,3.70
2018-08-17T00:36:32.249Z,4.00
2018-08-17T00:39:01.484Z,4.07
2018-08-17T00:41:30.482Z,4.73
2018-08-17T00:44:11.494Z,4.57
2018-08-17T00:46:40.572Z,4.50
2018-08-17T00:49:10.194Z,5.10
2018-08-17T00:51:39.244Z,5.43
2018-08-17T00:54:08.823Z,5.47
2018-08-17T00:56:37.842Z,5.10
2018-08-17T01:01:57.834Z,4.20
2018-08-17T01:19:36.757Z,4.97
2018-08-17T01:22:13.721Z,4.60
2018-08-17T01:24:43.424Z,5.27
2018-08-17T01:27:12.516Z,4.70
2018-08-17T01:29:41.890Z,4.50
2018-08-17T01:32:11.007Z,4.77
2018-08-17T01:34:40.018Z,4.87
2018-08-17T01:37:56.312Z,4.80
2018-08-17T01:40:27.945Z,4.33
2018-08-17T01:42:57.034Z,4.40
2018-08-17T01:45:26.109Z,4.07
2018-08-17T01:47:55.169Z,4.53
2018-08-17T01:50:24.414Z,4.60
2018-08-17T01:53:06.972Z,4.57
2018-08-17T01:55:36.107Z,4.57
2018-08-17T01:58:08.949Z,5.20
2018-08-17T02:00:38.175Z,5.30
2018-08-17T02:03:27.181Z,5.30
2018-08-17T02:05:59.525Z,5.53
2018-08-17T02:08:31.292Z,6.43
2018-08-17T02:11:00.336Z,5.57
2018-08-17T02:13:29.434Z,6.30
2018-08-17T02:15:58.552Z,5.20
2018-08-17T02:18:27.778Z,4.70
2018-08-17T02:20:56.771Z,4.83
2018-08-17T02:23:25.820Z,5.00
2018-08-17T02:25:55.189Z,4.57
2018-08-17T02:28:24.302Z,4.90
2018-08-17T02:30:53.367Z,5.20
2018-08-17T02:33:22.461Z,4.63
2018-08-17T02:35:51.587Z,5.30
2018-08-17T02:38:20.598Z,4.97
2018-08-17T02:40:49.754Z,5.33
2018-08-17T02:43:18.803Z,4.70
2018-08-17T02:45:47.912Z,4.90
2018-08-17T02:48:16.962Z,4.90
2018-08-17T02:50:48.491Z,4.37
2018-08-17T02:53:17.685Z,4.70
2018-08-17T02:56:01.808Z,4.47
2018-08-17T02:58:34.078Z,4.80
2018-08-17T03:01:03.130Z,5.03
2018-08-17T03:03:32.183Z,4.63
2018-08-17T03:06:01.313Z,4.90
2018-08-17T03:08:30.331Z,4.30
2018-08-17T03:10:59.427Z,4.50
2018-08-17T03:13:28.612Z,4.90
2018-08-17T03:15:57.633Z,4.60
2018-08-17T03:18:26.626Z,4.60
2018-08-17T03:20:55.651Z,4.47
2018-08-17T03:23:24.742Z,4.53
2018-08-17T03:25:53.820Z,4.50
2018-08-17T03:28:22.874Z,5.00
2018-08-17T03:30:51.872Z,4.63
2018-08-17T03:33:20.861Z,4.80
2018-08-17T03:35:49.950Z,4.57
2018-08-17T03:38:18.975Z,4.80
2018-08-17T03:40:48.098Z,4.80
2018-08-17T03:43:17.230Z,5.10
2018-08-17T03:45:47.103Z,5.43
2018-08-17T03:48:16.126Z,4.70
2018-08-17T03:50:46.144Z,4.37
2018-08-17T03:53:15.238Z,4.17
2018-08-17T03:55:44.643Z,4.53
2018-08-17T03:58:13.688Z,4.57
2018-08-17T04:00:43.060Z,4.53
2018-08-17T04:03:12.032Z,4.20
2018-08-17T04:05:41.122Z,3.90
2018-08-17T04:08:10.532Z,3.60
2018-08-17T04:10:39.489Z,4.53
2018-08-17T04:13:08.594Z,4.70
2018-08-17T04:15:37.812Z,4.20
2018-08-17T04:18:07.018Z,4.97
2018-08-17T04:20:36.495Z,4.60
2018-08-17T04:23:05.613Z,4.47
2018-08-17T04:25:35.532Z,4.40
2018-08-17T04:28:04.634Z,4.90
2018-08-17T04:30:33.667Z,5.20
2018-08-17T04:33:03.045Z,4.47
2018-08-17T04:35:32.236Z,4.83
2018-08-17T04:38:01.318Z,5.97
2018-08-17T04:40:30.715Z,6.00
2018-08-17T04:43:00.190Z,6.07
2018-08-17T04:45:29.299Z,6.30
2018-08-17T04:47:58.406Z,6.43
2018-08-17T04:50:27.417Z,6.17
2018-08-17T04:52:56.438Z,5.70
2018-08-17T04:55:25.430Z,5.43
2018-08-17T04:57:54.401Z,5.50
2018-08-17T05:00:23.410Z,5.03
2018-08-17T05:02:52.423Z,4.90
2018-08-17T05:05:21.560Z,5.07
2018-08-17T05:07:50.518Z,4.27
2018-08-17T05:10:22.417Z,4.53
2018-08-17T05:12:51.603Z,4.13
2018-08-17T05:15:22.050Z,4.70
2018-08-17T05:17:51.788Z,4.67
2018-08-17T05:20:44.351Z,4.40
2018-08-17T05:23:13.500Z,4.20
2018-08-17T05:25:44.283Z,4.00
2018-08-17T05:28:13.549Z,3.70
2018-08-17T05:30:43.300Z,4.47
2018-08-17T05:33:12.758Z,4.23
2018-08-17T05:35:41.888Z,4.70
2018-08-17T05:38:11.300Z,4.00
2018-08-17T05:40:40.494Z,3.83
2018-08-17T05:43:09.607Z,3.47
2018-08-17T05:45:38.721Z,3.80
2018-08-17T05:48:08.208Z,4.30
2018-08-17T05:50:37.428Z,4.20
2018-08-17T05:53:06.405Z,3.80
2018-08-17T05:55:35.467Z,3.57
2018-08-17T05:58:07.473Z,3.63
2018-08-17T06:00:38.297Z,3.57
2018-08-17T06:03:07.431Z,2.87
2018-08-17T06:05:36.624Z,2.60
2018-08-17T06:08:05.775Z,2.63
2018-08-17T06:10:34.862Z,3.27
2018-08-17T06:13:04.032Z,3.47
2018-08-17T06:15:36.106Z,3.50
2018-08-17T06:18:05.221Z,3.33
2018-08-17T06:20:36.764Z,3.00
2018-08-17T06:23:06.342Z,2.90
2018-08-17T06:25:35.397Z,2.63
2018-08-17T06:28:04.543Z,2.57
2018-08-17T06:30:33.567Z,3.00
2018-08-17T06:33:02.684Z,3.07
2018-08-17T06:35:31.756Z,3.07
2018-08-17T06:38:00.854Z,2.67
2018-08-17T06:40:29.953Z,2.90
2018-08-17T06:43:05.284Z,2.90
2018-08-17T06:45:34.327Z,3.10
2018-08-17T06:48:03.496Z,3.00
2018-08-17T06:50:32.578Z,2.90
2018-08-17T06:53:01.642Z,2.70
2018-08-17T06:55:30.682Z,2.80
2018-08-17T06:57:59.784Z,2.67
2018-08-17T07:00:29.924Z,3.00
2018-08-17T07:03:00.815Z,3.40
2018-08-17T07:05:29.885Z,3.37
2018-08-17T07:07:58.918Z,3.47
2018-08-17T07:10:28.669Z,3.10
2018-08-17T07:12:58.211Z,3.83
2018-08-17T07:15:29.155Z,3.57
2018-08-17T07:17:58.287Z,2.97
2018-08-17T07:20:27.465Z,3.10
2018-08-17T07:22:56.604Z,3.57
2018-08-17T07:25:25.763Z,3.10
2018-08-17T07:27:55.092Z,3.40
2018-08-17T07:30:24.293Z,2.63
2018-08-17T07:32:53.363Z,2.90
2018-08-17T07:35:22.518Z,3.10
2018-08-17T07:37:51.571Z,3.13
2018-08-17T07:40:22.737Z,3.17
2018-08-17T07:42:51.827Z,2.97
2018-08-17T07:45:21.392Z,2.70
2018-08-17T07:47:50.545Z,2.73
2018-08-17T07:50:23.079Z,2.80
2018-08-17T07:52:52.216Z,2.70
2018-08-17T07:55:22.124Z,2.83
2018-08-17T07:57:51.182Z,2.43
2018-08-17T08:00:22.549Z,2.40
2018-08-17T08:02:51.812Z,2.40
2018-08-17T08:05:23.070Z,2.80
2018-08-17T08:07:52.079Z,2.60
2018-08-17T08:10:22.227Z,2.73
2018-08-17T08:12:51.594Z,2.50
2018-08-17T08:15:21.527Z,2.63
2018-08-17T08:17:50.549Z,2.90
2018-08-17T08:20:28.440Z,2.63
2018-08-17T08:23:08.452Z,2.60
2018-08-17T08:25:37.560Z,2.70
2018-08-17T08:28:06.660Z,2.80
2018-08-17T08:30:35.754Z,2.53
2018-08-17T08:33:04.982Z,2.93
2018-08-17T08:35:34.061Z,2.53
2018-08-17T08:38:03.242Z,2.87
2018-08-17T08:40:38.765Z,3.00
2018-08-17T08:43:08.387Z,3.10
2018-08-17T08:45:37.676Z,3.00
2018-08-17T08:48:08.058Z,2.70
2018-08-17T08:50:37.427Z,3.03
2018-08-17T08:53:07.027Z,2.80
2018-08-17T08:55:36.133Z,3.00
2018-08-17T08:58:05.383Z,3.37
2018-08-17T09:00:34.499Z,3.30
2018-08-17T09:03:03.622Z,3.17
2018-08-17T09:05:32.866Z,2.87
2018-08-17T09:08:01.954Z,3.20
2018-08-17T09:10:30.942Z,3.10
2018-08-17T09:12:59.851Z,3.10
2018-08-17T09:15:28.879Z,3.33
2018-08-17T09:17:57.937Z,2.90
2018-08-17T09:20:26.976Z,2.90
2018-08-17T09:22:56.011Z,2.73
2018-08-17T09:25:25.127Z,2.93
2018-08-17T09:27:54.094Z,2.80
2018-08-17T09:30:23.103Z,2.77
2018-08-17T09:32:52.171Z,3.00
2018-08-17T09:35:22.619Z,2.80
2018-08-17T09:37:51.680Z,2.90
2018-08-17T09:40:22.708Z,3.20
2018-08-17T09:42:51.725Z,2.77
2018-08-17T09:45:21.675Z,2.80
2018-08-17T09:47:50.715Z,3.00
2018-08-17T09:50:22.686Z,3.23
2018-08-17T09:52:51.806Z,2.70
2018-08-17T09:55:21.874Z,2.90
2018-08-17T09:57:50.770Z,3.03
2018-08-17T10:00:27.784Z,2.90
2018-08-17T10:03:01.839Z,2.70
2018-08-17T10:05:35.773Z,2.90
2018-08-17T10:08:09.717Z,2.67
2018-08-17T10:10:38.866Z,2.73
2018-08-17T10:13:07.909Z,2.90
2018-08-17T10:15:37.603Z,3.00
2018-08-17T10:18:06.617Z,3.00
2018-08-17T10:20:35.626Z,3.07
2018-08-17T10:23:14.236Z,2.77
2018-08-17T10:25:43.349Z,3.30
2018-08-17T10:28:12.244Z,3.07
2018-08-17T10:30:41.277Z,2.97
2018-08-17T10:33:10.265Z,3.00
2018-08-17T10:35:39.231Z,2.70
2018-08-17T10:38:08.780Z,2.90
2018-08-17T10:40:37.843Z,2.90
2018-08-17T10:43:07.337Z,2.83
2018-08-17T10:45:36.346Z,2.83
2018-08-17T10:48:05.369Z,2.90
2018-08-17T10:50:34.931Z,2.80
2018-08-17T10:53:06.344Z,2.30
2018-08-17T10:55:42.138Z,2.83
2018-08-17T10:58:13.169Z,2.60
2018-08-17T11:00:42.169Z,2.80
2018-08-17T11:03:11.274Z,2.77
2018-08-17T11:05:40.363Z,2.67
2018-08-17T11:08:09.422Z,2.67
2018-08-17T11:10:38.315Z,2.70
2018-08-17T11:13:07.420Z,2.80
2018-08-17T11:15:36.447Z,2.33
2018-08-17T11:18:05.513Z,2.67
2018-08-17T11:20:34.638Z,2.50
2018-08-17T11:23:03.635Z,3.00
2018-08-17T11:25:32.664Z,2.90
2018-08-17T11:28:01.720Z,2.70
2018-08-17T11:30:30.979Z,2.80
2018-08-17T11:32:59.869Z,3.00
2018-08-17T11:35:28.866Z,2.93
2018-08-17T11:37:57.822Z,2.90
2018-08-17T11:40:26.801Z,2.60
2018-08-17T11:42:55.705Z,2.50
2018-08-17T11:45:25.755Z,2.57
2018-08-17T11:48:03.755Z,2.60
2018-08-17T11:50:36.026Z,2.63
2018-08-17T11:53:05.304Z,2.60
2018-08-17T11:55:34.934Z,2.67
2018-08-17T11:58:03.902Z,2.80
2018-08-17T12:00:37.984Z,2.70
2018-08-17T12:03:08.689Z,2.63
2018-08-17T12:05:37.852Z,2.90
2018-08-17T12:08:07.039Z,3.13
2018-08-17T12:10:35.979Z,2.87
2018-08-17T12:13:10.191Z,2.50
2018-08-17T12:15:45.386Z,2.57
2018-08-17T12:18:14.619Z,2.63
2018-08-17T12:20:45.667Z,2.63
2018-08-17T12:23:14.695Z,2.90
2018-08-17T12:25:48.675Z,2.70
2018-08-17T12:28:17.735Z,2.47
2018-08-17T12:30:47.117Z,2.83
2018-08-17T12:33:16.613Z,2.60
2018-08-17T12:35:46.391Z,2.60
2018-08-17T12:38:16.489Z,2.87
2018-08-17T12:40:55.481Z,2.90
2018-08-17T12:43:30.517Z,2.67
2018-08-17T12:45:59.503Z,2.60
2018-08-17T12:48:28.567Z,2.50
2018-08-17T12:51:02.615Z,2.70
2018-08-17T12:53:31.717Z,2.40
2018-08-17T12:56:03.705Z,2.40
2018-08-17T12:58:32.808Z,2.40
2018-08-17T13:01:01.757Z,2.40
2018-08-17T13:03:31.248Z,2.53
2018-08-17T13:06:05.020Z,2.67
2018-08-17T13:08:34.010Z,2.47
2018-08-17T13:11:04.768Z,2.57
2018-08-17T13:13:34.021Z,2.50
2018-08-17T13:16:04.769Z,2.57
2018-08-17T13:18:35.666Z,2.43
2018-08-17T13:21:04.999Z,2.67
2018-08-17T13:23:35.870Z,2.30
2018-08-17T13:26:04.854Z,2.50
2018-08-17T13:28:33.791Z,2.30
2018-08-17T13:31:02.907Z,2.40
2018-08-17T13:33:31.927Z,2.50
2018-08-17T13:36:00.902Z,2.47
2018-08-17T13:38:30.092Z,2.57
2018-08-17T13:40:59.128Z,2.53
2018-08-17T13:43:28.262Z,2.60
2018-08-17T13:45:57.249Z,2.30
2018-08-17T13:48:26.217Z,2.40
2018-08-17T13:50:55.224Z,2.30
2018-08-17T13:53:24.308Z,2.00
2018-08-17T13:55:53.325Z,2.43
2018-08-17T13:58:22.415Z,2.30
2018-08-17T14:00:51.650Z,2.20
2018-08-17T14:03:20.695Z,2.40
2018-08-17T14:05:49.874Z,2.40
2018-08-17T14:08:19.314Z,2.20
2018-08-17T14:10:49.949Z,2.00
2018-08-17T14:13:21.058Z,2.30
2018-08-17T14:15:50.192Z,2.60
2018-08-17T14:18:19.466Z,2.67
2018-08-17T14:20:49.068Z,2.60
2018-08-17T14:23:19.930Z,2.60
2018-08-17T14:25:51.166Z,2.90
2018-08-17T14:28:20.264Z,2.80
2018-08-17T14:30:49.587Z,2.60
2018-08-17T14:33:19.074Z,3.07
2018-08-17T14:35:48.466Z,2.67
2018-08-17T14:38:25.586Z,2.83
2018-08-17T14:40:55.424Z,3.13
2018-08-17T14:43:24.891Z,2.60
2018-08-17T14:45:53.974Z,2.67
2018-08-17T14:48:23.168Z,2.77
2018-08-17T14:50:52.199Z,2.90
2018-08-17T14:53:21.241Z,2.87
2018-08-17T14:55:50.721Z,3.27
2018-08-17T14:58:20.017Z,3.20
2018-08-17T15:00:49.818Z,3.10
2018-08-17T15:03:20.441Z,2.77
2018-08-17T15:05:50.182Z,2.93
2018-08-17T15:08:19.527Z,2.60
2018-08-17T15:10:49.265Z,2.60
2018-08-17T15:13:18.699Z,2.70
2018-08-17T15:15:48.066Z,2.57
2018-08-17T15:18:17.066Z,2.70
2018-08-17T15:20:46.980Z,2.70
2018-08-17T15:23:16.045Z,2.43
2018-08-17T15:25:45.857Z,2.63
2018-08-17T15:28:14.903Z,3.03
2018-08-17T15:30:44.426Z,2.30
2018-08-17T15:33:13.415Z,2.30
2018-08-17T15:35:42.914Z,2.30
2018-08-17T15:38:11.996Z,2.67
2018-08-17T15:44:25.790Z,2.23
2018-08-17T15:47:34.169Z,2.17
2018-08-17T15:50:21.022Z,2.23
2018-08-17T15:52:56.180Z,2.63
2018-08-17T15:55:33.730Z,2.70
2018-08-17T15:58:03.176Z,2.73
2018-08-17T16:00:32.913Z,2.43
2018-08-17T16:03:02.531Z,3.00
2018-08-17T16:05:31.937Z,2.30
2018-08-17T16:08:01.374Z,2.57
2018-08-17T16:10:30.808Z,2.60
2018-08-17T16:13:00.192Z,2.90
2018-08-17T16:15:29.219Z,2.50
2018-08-17T16:17:58.207Z,2.60
2018-08-17T16:20:27.901Z,2.40
2018-08-17T16:22:56.993Z,2.33
2018-08-17T16:25:26.056Z,2.57
2018-08-17T16:27:55.260Z,2.60
2018-08-17T16:30:24.736Z,2.60
2018-08-17T16:32:53.730Z,2.47
2018-08-17T16:35:22.907Z,2.70
2018-08-17T16:37:52.288Z,2.80
2018-08-17T16:40:23.331Z,2.57
2018-08-17T16:42:52.933Z,2.90
2018-08-17T16:45:21.975Z,2.73
2018-08-17T16:48:13.343Z,2.53
2018-08-17T16:50:42.635Z,2.80
2018-08-17T16:53:18.713Z,2.70
2018-08-17T16:55:48.062Z,2.77
2018-08-17T16:58:17.357Z,2.80
2018-08-17T17:04:03.613Z,2.80
2018-08-17T17:06:33.223Z,2.20
2018-08-17T17:09:05.987Z,2.60
2018-08-17T17:11:36.201Z,3.07
2018-08-17T17:14:05.994Z,2.83
2018-08-17T17:16:50.349Z,3.13
2018-08-17T17:19:32.798Z,3.00
2018-08-17T17:22:01.934Z,3.00
2018-08-17T17:24:30.936Z,2.90
2018-08-17T17:27:00.175Z,2.90
2018-08-17T17:29:35.003Z,3.10
2018-08-17T17:32:04.686Z,2.60
2018-08-17T17:34:34.432Z,2.83
2018-08-17T17:37:05.163Z,3.13
2018-08-17T17:39:34.381Z,3.17
2018-08-17T17:42:03.979Z,3.40
2018-08-17T17:44:36.737Z,2.73
2018-08-17T17:47:06.076Z,3.57
2018-08-17T17:49:35.383Z,3.30
2018-08-17T17:52:04.940Z,3.10
2018-08-17T17:54:34.346Z,3.23
2018-08-17T17:57:08.237Z,3.00
2018-08-17T17:59:45.801Z,3.40
2018-08-17T18:02:14.978Z,3.43
2018-08-17T18:04:44.703Z,3.30
2018-08-17T18:07:13.790Z,3.40
2018-08-17T18:09:42.923Z,3.50
2018-08-17T18:12:12.432Z,3.27
2018-08-17T18:14:41.422Z,3.10
2018-08-17T18:17:11.092Z,3.03
2018-08-17T18:19:40.310Z,3.73
2018-08-17T18:22:18.344Z,3.50
2018-08-17T18:24:48.051Z,3.60
2018-08-17T18:27:17.564Z,3.17
2018-08-17T18:29:47.221Z,3.17
2018-08-17T18:32:16.256Z,3.43
2018-08-17T18:34:45.769Z,3.83
2018-08-17T18:37:14.868Z,3.53
2018-08-17T18:39:44.267Z,3.23
2018-08-17T18:42:13.455Z,3.17
2018-08-17T18:44:42.524Z,3.30
2018-08-17T18:47:11.643Z,3.47
2018-08-17T18:49:40.594Z,3.47
2018-08-17T18:52:09.687Z,3.43
2018-08-17T18:54:38.659Z,3.10
2018-08-17T18:57:07.713Z,3.40
2018-08-17T18:59:37.127Z,3.23
2018-08-17T19:02:06.179Z,3.13
2018-08-17T19:04:35.574Z,2.87
2018-08-17T19:07:05.088Z,3.43
2018-08-17T19:09:34.962Z,3.10
2018-08-17T19:12:04.471Z,3.20
2018-08-17T19:14:34.006Z,3.30
2018-08-17T19:17:03.439Z,3.10
2018-08-17T19:19:33.519Z,3.20
2018-08-17T19:22:03.447Z,2.77
2018-08-17T19:24:32.832Z,2.87
2018-08-17T19:27:02.148Z,3.23
2018-08-17T19:29:31.222Z,3.20
2018-08-17T19:32:01.218Z,3.20
2018-08-17T19:34:31.706Z,3.73
2018-08-17T19:37:00.800Z,3.30
2018-08-17T19:39:33.815Z,3.60
2018-08-17T19:42:03.535Z,3.50
2018-08-17T19:44:33.311Z,3.03
2018-08-17T19:47:02.577Z,2.80
2018-08-17T19:49:31.687Z,2.90
2018-08-17T19:52:00.736Z,3.17
2018-08-17T19:54:29.937Z,3.20
2018-08-17T19:56:59.062Z,2.90
2018-08-17T19:59:28.235Z,3.23
2018-08-17T20:01:57.430Z,2.80
2018-08-17T20:04:26.486Z,3.23
2018-08-17T20:06:55.556Z,2.93
2018-08-17T20:09:24.522Z,3.27
2018-08-17T20:11:53.573Z,2.80
2018-08-17T20:14:22.627Z,3.03
2018-08-17T20:16:51.714Z,3.17
2018-08-17T20:19:20.912Z,3.20
2018-08-17T20:21:50.091Z,3.07
2018-08-17T20:24:19.754Z,2.60
2018-08-17T20:26:49.599Z,3.20
2018-08-17T20:29:19.185Z,3.00
2018-08-17T20:31:49.017Z,2.87
2018-08-17T20:34:18.472Z,2.50
2018-08-17T20:36:47.809Z,2.50
2018-08-17T20:39:17.722Z,3.37
2018-08-17T20:41:47.878Z,2.90
2018-08-17T20:44:17.679Z,3.27
2018-08-17T20:46:48.028Z,3.20
2018-08-17T20:49:17.535Z,2.93
2018-08-17T20:51:53.143Z,3.73
2018-08-17T20:54:22.119Z,3.03
2018-08-17T20:56:51.129Z,3.43
2018-08-17T20:59:20.490Z,3.37
2018-08-17T21:01:49.756Z,2.97
2018-08-17T21:04:19.312Z,3.00
2018-08-17T21:06:49.616Z,3.20
2018-08-17T21:09:20.090Z,3.00
2018-08-17T21:11:49.660Z,3.10
2018-08-17T21:14:19.241Z,3.00
2018-08-17T21:16:49.393Z,3.40
2018-08-17T21:19:27.614Z,3.70
2018-08-17T21:21:58.349Z,3.70
2018-08-17T21:24:27.378Z,4.10
2018-08-17T21:26:56.523Z,3.80
2018-08-17T21:29:26.008Z,3.90
2018-08-17T21:31:55.922Z,3.90
2018-08-17T21:34:25.102Z,4.07
2018-08-17T21:36:55.202Z,4.23
2018-08-17T21:39:24.248Z,4.07
2018-08-17T21:41:53.783Z,4.70
2018-08-17T21:44:22.940Z,4.70
2018-08-17T21:46:57.200Z,3.97
2018-08-17T21:49:26.963Z,4.50
2018-08-17T21:51:58.344Z,4.67
2018-08-17T21:54:29.687Z,4.80
2018-08-17T21:56:59.401Z,4.53
2018-08-17T21:59:34.778Z,3.90
2018-08-17T22:02:05.615Z,5.17
2018-08-17T22:04:35.313Z,5.67
2018-08-17T22:07:21.345Z,5.93
2018-08-17T22:09:51.962Z,5.07
2018-08-17T22:12:21.320Z,4.63
2018-08-17T22:14:50.896Z,5.07
2018-08-17T22:17:31.832Z,5.20
2018-08-17T22:20:01.250Z,4.63
2018-08-17T22:22:30.374Z,4.90
2018-08-17T22:25:00.193Z,4.53
2018-08-17T22:27:29.883Z,4.30
2018-08-17T22:29:59.909Z,4.80
2018-08-17T22:32:29.055Z,5.33
2018-08-17T22:34:58.191Z,5.67
2018-08-17T22:37:27.420Z,5.37
2018-08-17T22:39:56.518Z,4.83
2018-08-17T22:42:25.689Z,4.93
2018-08-17T22:44:54.691Z,5.63
2018-08-17T22:47:28.287Z,4.80
2018-08-17T22:49:59.184Z,4.93
2018-08-17T22:52:29.805Z,5.00
2018-08-17T22:55:02.627Z,4.93
2018-08-17T22:57:32.473Z,5.37
2018-08-17T23:00:19.683Z,5.30
2018-08-17T23:02:54.103Z,5.40
2018-08-17T23:05:46.058Z,6.47
2018-08-17T23:08:15.320Z,6.97
2018-08-17T23:10:45.102Z,6.43
2018-08-17T23:13:14.274Z,6.50
2018-08-17T23:15:43.881Z,6.83
2018-08-17T23:18:14.092Z,6.87
2018-08-17T23:20:43.560Z,6.67
2018-08-17T23:23:12.986Z,6.93
2018-08-17T23:25:42.111Z,7.70
2018-08-17T23:28:11.360Z,8.03
2018-08-17T23:30:40.690Z,8.67
2018-08-17T23:33:10.312Z,8.77
2018-08-17T23:35:39.905Z,5.40
2018-08-17T23:38:09.062Z,5.97
2018-08-17T23:40:38.765Z,5.23
2018-08-17T23:43:07.881Z,5.70
2018-08-17T23:45:36.836Z,5.10
2018-08-17T23:48:05.820Z,5.90
2018-08-17T23:50:35.797Z,6.57
2018-08-17T23:53:04.915Z,6.67
2018-08-17T23:55:34.288Z,8.10
2018-08-17T23:58:04.023Z,7.23
